Time;durP1;ratioP1;P1;durP2;ratioP2;P2;SDS_P1;SDS_P2;PMS_P1;PMS_P2;Temp;Humidity;BMP_temperature;BMP_pressure;BME280_temperature;BME280_humidity;BME280_pressure;Samples;Min_cycle;Max_cycle;Signal;HPM_P1;HPM_P2
2022/09/24 00:00:11;;;;;;;;;;;;;;;14.86;100.00;101286.00;5053363;28;19925;-31
2022/09/24 00:02:39;;;;;;;;;;;;;;;14.88;100.00;101289.31;5053939;28;20058;-31
2022/09/24 00:05:09;;;;;;;;;;;;;;;14.89;100.00;101282.56;5053955;28;19952;-31
2022/09/24 00:07:36;;;;;;;;;;;;;;;14.89;100.00;101277.78;5053905;28;19931;-32
2022/09/24 00:10:04;;;;;;;;;;;;;;;14.90;100.00;101281.41;5053712;28;20023;-31
2022/09/24 00:12:32;;;;;;;;;;;;;;;14.90;100.00;101282.25;5032712;28;19929;-31
2022/09/24 00:14:59;;;;;;;;;;;;;;;14.92;100.00;101276.31;5048216;28;19935;-31
2022/09/24 00:17:27;;;;;;;;;;;;;;;14.92;100.00;101279.94;5053604;28;19955;-31
2022/09/24 00:19:54;;;;;;;;;;;;;;;14.89;100.00;101280.56;5053004;28;19978;-31
2022/09/24 00:22:23;;;;;;;;;;;;;;;14.89;100.00;101280.56;5053509;28;20301;-31
2022/09/24 00:27:36;;;;;;;;;;;;;;;14.85;100.00;101276.75;5053255;28;20059;-32
2022/09/24 00:30:03;;;;;;;;;;;;;;;14.85;100.00;101275.91;5053409;28;20373;-32
2022/09/24 00:32:31;;;;;;;;;;;;;;;14.83;100.00;101273.41;5053174;28;19933;-32
2022/09/24 00:34:58;;;;;;;;;;;;;;;14.81;100.00;101270.91;5053100;28;19947;-32
2022/09/24 00:37:28;;;;;;;;;;;;;;;14.81;100.00;101270.09;5053177;28;20271;-32
2022/09/24 00:39:56;;;;;;;;;;;;;;;14.80;100.00;101265.59;5053237;28;19943;-31
2022/09/24 00:42:24;;;;;;;;;;;;;;;14.80;100.00;101268.41;5052871;28;20393;-31
2022/09/24 00:44:53;;;;;;;;;;;;;;;14.80;100.00;101268.41;5052957;28;19931;-31
2022/09/24 00:47:29;;;;;;;;;;;;;;;14.78;100.00;101268.75;5053641;28;19982;-31
2022/09/24 00:50:00;;;;;;;;;;;;;;;14.78;100.00;101273.56;5053243;28;19928;-31
2022/09/24 00:52:29;;;;;;;;;;;;;;;14.75;100.00;101266.59;5052810;28;20023;-31
2022/09/24 00:54:57;;;;;;;;;;;;;;;14.72;100.00;101269.19;5052615;28;19967;-31
2022/09/24 00:57:25;;;;;;;;;;;;;;;14.72;100.00;101272.00;5052873;28;20389;-31
2022/09/24 00:59:53;;;;;;;;;;;;;;;14.70;100.00;101274.28;5052727;28;19929;-31
2022/09/24 01:02:21;;;;;;;;;;;;;;;14.69;100.00;101278.25;5052388;28;20339;-31
2022/09/24 01:04:49;;;;;;;;;;;;;;;14.67;100.00;101278.56;5053115;28;19928;-31
2022/09/24 01:07:22;;;;;;;;;;;;;;;14.66;100.00;101268.47;5052508;28;19929;-31
2022/09/24 01:09:51;;;;;;;;;;;;;;;14.66;100.00;101270.47;5052425;28;19933;-31
2022/09/24 01:12:24;;;;;;;;;;;;;;;14.64;100.00;101270.78;5052626;28;19929;-31
2022/09/24 01:15:07;;;;;;;;;;;;;;;14.62;100.00;101275.88;5052666;28;19959;-31
2022/09/24 01:17:39;;;;;;;;;;;;;;;14.61;100.00;101271.41;5052334;28;19932;-31
2022/09/24 01:20:25;;;;;;;;;;;;;;;14.60;100.00;101266.94;5052494;28;19952;-31
2022/09/24 01:23:02;;;;;;;;;;;;;;;14.58;100.00;101268.41;5051784;28;19932;-32
2022/09/24 01:25:37;;;;;;;;;;;;;;;14.56;100.00;101265.09;5052790;28;19951;-31
2022/09/24 01:28:15;;;;;;;;;;;;;;;14.56;100.00;101265.09;5052199;28;19928;-31
2022/09/24 01:30:46;;;;;;;;;;;;;;;14.55;100.00;101269.03;5051965;28;20351;-31
2022/09/24 01:33:17;;;;;;;;;;;;;;;14.54;100.00;101276.63;5052425;28;20263;-31
2022/09/24 01:35:48;;;;;;;;;;;;;;;14.53;100.00;101274.13;5052366;28;19932;-31
2022/09/24 01:38:18;;;;;;;;;;;;;;;14.52;100.00;101269.66;5051466;28;19931;-31
2022/09/24 01:40:46;;;;;;;;;;;;;;;14.50;100.00;101267.19;5052082;28;19925;-31
2022/09/24 01:43:15;;;;;;;;;;;;;;;14.50;100.00;101261.56;5051852;28;20282;-32
2022/09/24 01:45:44;;;;;;;;;;;;;;;14.48;100.00;101264.69;5052306;28;19925;-31
2022/09/24 01:48:12;;;;;;;;;;;;;;;14.47;100.00;101262.19;5051689;28;20775;-31
2022/09/24 01:50:42;;;;;;;;;;;;;;;14.45;100.00;101259.69;5052206;28;19929;-32
2022/09/24 01:53:12;;;;;;;;;;;;;;;14.44;100.00;101262.81;5051477;28;19932;-32
2022/09/24 01:55:43;;;;;;;;;;;;;;;14.43;100.00;101266.75;5051831;28;20377;-32
2022/09/24 01:58:15;;;;;;;;;;;;;;;14.42;100.00;101259.50;5051347;28;20468;-32
2022/09/24 02:00:48;;;;;;;;;;;;;;;14.39;100.00;101255.28;5051942;28;20405;-32
2022/09/24 02:03:18;;;;;;;;;;;;;;;14.39;100.00;101243.22;5051611;28;19950;-32
2022/09/24 02:05:50;;;;;;;;;;;;;;;14.38;100.00;101252.84;5051649;28;19928;-32
2022/09/24 02:08:21;;;;;;;;;;;;;;;14.35;100.00;101248.69;5051482;28;19929;-32
2022/09/24 02:10:51;;;;;;;;;;;;;;;14.33;100.00;101245.34;5051863;28;19982;-32
2022/09/24 02:13:23;;;;;;;;;;;;;;;14.33;100.00;101250.97;5051158;28;19925;-32
2022/09/24 02:15:54;;;;;;;;;;;;;;;14.32;100.00;101251.28;5051642;28;20381;-32
2022/09/24 02:18:26;;;;;;;;;;;;;;;14.31;100.00;101255.22;5051570;28;19928;-32
2022/09/24 02:20:54;;;;;;;;;;;;;;;14.31;100.00;101247.63;5051012;28;19929;-32
2022/09/24 02:23:24;;;;;;;;;;;;;;;14.30;100.00;101245.97;5051268;28;19990;-32
2022/09/24 02:25:54;;;;;;;;;;;;;;;14.29;100.00;101249.09;5052007;28;20343;-32
2022/09/24 02:28:21;;;;;;;;;;;;;;;14.28;100.00;101253.03;5050990;28;20120;-32
2022/09/24 02:30:51;;;;;;;;;;;;;;;14.26;100.00;101244.09;5051244;28;19935;-32
2022/09/24 02:36:07;;;;;;;;;;;;;;;14.24;100.00;101252.84;5051064;28;20419;-32
2022/09/24 02:38:35;;;;;;;;;;;;;;;14.24;100.00;101246.38;5051048;28;19925;-32
2022/09/24 02:41:02;;;;;;;;;;;;;;;14.24;100.00;101240.78;5050987;28;20393;-32
2022/09/24 02:43:30;;;;;;;;;;;;;;;14.24;100.00;101247.22;5051227;28;19932;-32
2022/09/24 02:45:57;;;;;;;;;;;;;;;14.21;100.00;101232.97;5051132;28;19929;-32
2022/09/24 02:48:26;;;;;;;;;;;;;;;14.21;100.00;101230.16;5050894;28;19925;-32
2022/09/24 02:50:54;;;;;;;;;;;;;;;14.21;100.00;101241.41;5051104;28;19924;-32
2022/09/24 02:53:22;;;;;;;;;;;;;;;14.20;100.00;101239.72;5051440;28;19935;-32
2022/09/24 02:55:49;;;;;;;;;;;;;;;14.18;100.00;101236.44;5050504;28;20293;-32
2022/09/24 02:58:17;;;;;;;;;;;;;;;14.16;100.00;101239.56;5051065;28;20020;-32
2022/09/24 03:00:44;;;;;;;;;;;;;;;14.14;100.00;101225.00;5051038;28;20408;-32
2022/09/24 03:03:12;;;;;;;;;;;;;;;14.13;100.00;101224.19;5050652;28;19928;-32
2022/09/24 03:05:41;;;;;;;;;;;;;;;14.12;100.00;101227.28;5050800;28;20324;-32
2022/09/24 03:08:08;;;;;;;;;;;;;;;14.11;100.00;101225.63;5051365;28;19924;-32
2022/09/24 03:10:36;;;;;;;;;;;;;;;14.11;100.00;101229.28;5050884;28;20341;-31
2022/09/24 03:13:03;;;;;;;;;;;;;;;14.12;100.00;101232.91;5051437;28;19929;-32
2022/09/24 03:15:31;;;;;;;;;;;;;;;14.11;100.00;101225.63;5050482;28;20351;-32
2022/09/24 03:17:58;;;;;;;;;;;;;;;14.11;100.00;101232.06;5051119;28;19947;-32
2022/09/24 03:20:26;;;;;;;;;;;;;;;14.11;100.00;101237.69;5050882;28;19929;-31
2022/09/24 03:22:55;;;;;;;;;;;;;;;14.13;100.00;101234.56;5050264;28;19925;-32
2022/09/24 03:25:24;;;;;;;;;;;;;;;14.12;100.00;101239.34;5050637;28;19929;-31
2022/09/24 03:27:51;;;;;;;;;;;;;;;14.13;100.00;101243.00;5051081;28;20274;-32
2022/09/24 03:33:04;;;;;;;;;;;;;;;14.12;100.00;101236.53;5041610;28;19929;-32
2022/09/24 03:35:32;;;;;;;;;;;;;;;14.13;100.00;101237.38;5050914;28;19940;-31
2022/09/24 03:38:01;;;;;;;;;;;;;;;14.14;100.00;101242.69;5050247;28;19925;-32
2022/09/24 03:40:28;;;;;;;;;;;;;;;14.15;100.00;101246.31;5050876;28;20425;-32
2022/09/24 03:42:56;;;;;;;;;;;;;;;14.17;100.00;101238.41;5050915;28;19932;-32
2022/09/24 03:45:24;;;;;;;;;;;;;;;14.17;100.00;101241.22;5050316;28;19929;-32
2022/09/24 03:47:52;;;;;;;;;;;;;;;14.18;100.00;101234.47;5052469;28;19978;-32
2022/09/24 03:50:19;;;;;;;;;;;;;;;14.18;100.00;101240.06;5054424;28;19924;-32
2022/09/24 03:52:47;;;;;;;;;;;;;;;14.16;100.00;101241.53;5053922;28;19932;-32
2022/09/24 03:55:16;;;;;;;;;;;;;;;14.11;100.00;101237.69;5053875;28;19929;-32
2022/09/24 03:57:44;;;;;;;;;;;;;;;14.07;100.00;101242.25;5052066;28;19941;-32
2022/09/24 04:00:12;;;;;;;;;;;;;;;14.03;100.00;101241.22;5054082;28;19983;-32
2022/09/24 04:02:40;;;;;;;;;;;;;;;14.01;100.00;101245.47;5053766;28;19948;-32
2022/09/24 04:05:08;;;;;;;;;;;;;;;13.97;100.00;101244.47;5053492;28;19974;-32
2022/09/24 04:07:36;;;;;;;;;;;;;;;13.94;100.00;101245.91;5054207;28;19933;-32
2022/09/24 04:10:03;;;;;;;;;;;;;;;13.94;100.00;101247.88;5053909;28;19936;-32
2022/09/24 04:12:33;;;;;;;;;;;;;;;13.92;100.00;101251.00;5053235;28;20348;-32
2022/09/24 04:15:02;;;;;;;;;;;;;;;13.92;100.00;101242.59;5054052;28;19936;-32
2022/09/24 04:17:30;;;;;;;;;;;;;;;13.92;100.00;101250.19;5053699;28;19936;-32
2022/09/24 04:19:57;;;;;;;;;;;;;;;13.93;100.00;101251.84;5053477;28;19952;-32
2022/09/24 04:22:27;;;;;;;;;;;;;;;13.93;100.00;101254.66;5053446;28;19925;-32
2022/09/24 04:24:56;;;;;;;;;;;;;;;13.89;100.00;101251.63;5053728;28;19975;-37
2022/09/24 04:27:24;;;;;;;;;;;;;;;13.89;100.00;101256.41;5052843;28;19928;-32
2022/09/24 04:29:53;;;;;;;;;;;;;;;13.86;100.00;101257.84;5035507;28;20461;-32
2022/09/24 04:32:21;;;;;;;;;;;;;;;13.86;100.00;101268.25;5053518;28;19943;-32
2022/09/24 04:34:49;;;;;;;;;;;;;;;13.82;100.00;101256.81;5053016;28;19933;-32
2022/09/24 04:37:17;;;;;;;;;;;;;;;13.81;100.00;101257.94;5068474;28;19928;-32
2022/09/24 04:39:44;;;;;;;;;;;;;;;13.79;100.00;101263.03;5052880;28;19959;-32
2022/09/24 04:42:15;;;;;;;;;;;;;;;13.78;100.00;101261.41;5053424;28;19924;-32
2022/09/24 04:44:46;;;;;;;;;;;;;;;13.77;100.00;101268.16;5051707;28;19929;-31
2022/09/24 04:47:15;;;;;;;;;;;;;;;13.74;100.00;101260.34;5052818;28;19933;-31
2022/09/24 04:49:44;;;;;;;;;;;;;;;13.74;100.00;101272.41;5053071;28;19934;-31
2022/09/24 04:52:13;;;;;;;;;;;;;;;13.74;100.00;101265.97;5052906;28;20293;-31
2022/09/24 04:54:43;;;;;;;;;;;;;;;13.75;100.00;101267.63;5052922;28;19928;-31
2022/09/24 04:57:11;;;;;;;;;;;;;;;13.74;100.00;101271.56;5052940;28;19990;-31
2022/09/24 04:59:39;;;;;;;;;;;;;;;13.73;100.00;101276.34;5052427;28;19959;-32
2022/09/24 05:02:07;;;;;;;;;;;;;;;13.73;100.00;101276.34;5052487;28;20377;-32
2022/09/24 05:04:37;;;;;;;;;;;;;;;13.72;100.00;101273.84;5052933;28;19980;-32
2022/09/24 05:07:05;;;;;;;;;;;;;;;13.71;100.00;101273.03;5052884;28;19924;-32
2022/09/24 05:09:33;;;;;;;;;;;;;;;13.71;100.00;101272.19;5052047;28;19929;-32
2022/09/24 05:12:01;;;;;;;;;;;;;;;13.70;100.00;101279.78;5052763;28;19929;-31
2022/09/24 05:14:29;;;;;;;;;;;;;;;13.70;100.00;101284.56;5052603;28;19928;-32
2022/09/24 05:16:56;;;;;;;;;;;;;;;13.70;100.00;101281.75;5052568;28;19987;-32
2022/09/24 05:19:24;;;;;;;;;;;;;;;13.70;100.00;101282.56;5052378;28;20393;-32
2022/09/24 05:21:53;;;;;;;;;;;;;;;13.70;100.00;101288.19;5044293;28;19929;-31
2022/09/24 05:24:20;;;;;;;;;;;;;;;13.70;100.00;101281.75;5037343;28;20381;-31
2022/09/24 05:29:33;;;;;;;;;;;;;;;13.67;100.00;101285.16;5050419;28;20002;-31
2022/09/24 05:32:04;;;;;;;;;;;;;;;13.65;100.00;101288.28;5050862;28;19925;-31
2022/09/24 05:34:32;;;;;;;;;;;;;;;13.62;100.00;101288.88;5050349;28;19963;-31
2022/09/24 05:37:01;;;;;;;;;;;;;;;13.62;100.00;101297.31;5049957;28;19931;-32
2022/09/24 05:39:30;;;;;;;;;;;;;;;13.60;100.00;101293.13;5050226;28;19925;-31
2022/09/24 05:42:02;;;;;;;;;;;;;;;13.60;100.00;101298.75;5048269;28;20021;-31
2022/09/24 05:44:30;;;;;;;;;;;;;;;13.58;100.00;101301.06;5050307;28;20297;-31
2022/09/24 05:46:57;;;;;;;;;;;;;;;13.57;100.00;101293.78;5047138;28;19929;-31
2022/09/24 05:49:25;;;;;;;;;;;;;;;13.58;100.00;101301.88;5051040;28;19978;-31
2022/09/24 05:51:52;;;;;;;;;;;;;;;13.59;100.00;101297.91;5050523;28;19928;-31
2022/09/24 05:54:21;;;;;;;;;;;;;;;13.61;100.00;101300.41;5051039;28;19960;-31
2022/09/24 05:56:49;;;;;;;;;;;;;;;13.61;100.00;101306.03;5050389;28;19929;-31
2022/09/24 05:59:17;;;;;;;;;;;;;;;13.62;100.00;101304.88;5050209;28;20388;-32
2022/09/24 06:01:44;;;;;;;;;;;;;;;13.64;100.00;101311.00;5050399;28;19928;-32
2022/09/24 06:04:12;;;;;;;;;;;;;;;13.64;100.00;101308.22;5050428;28;19936;-32
2022/09/24 06:06:40;;;;;;;;;;;;;;;13.65;100.00;101312.69;5050676;28;19936;-32
2022/09/24 06:09:08;;;;;;;;;;;;;;;13.65;100.00;101312.69;5049657;28;19953;-31
2022/09/24 06:11:37;;;;;;;;;;;;;;;13.65;100.00;101319.13;5049547;28;20003;-31
2022/09/24 06:14:07;;;;;;;;;;;;;;;13.66;100.00;101322.75;5050478;28;20058;-31
2022/09/24 06:16:35;;;;;;;;;;;;;;;13.66;100.00;101319.97;5050448;28;19933;-31
2022/09/24 06:19:03;;;;;;;;;;;;;;;13.66;100.00;101328.38;5049910;28;20403;-31
2022/09/24 06:21:31;;;;;;;;;;;;;;;13.66;100.00;101325.56;5050321;28;19925;-31
2022/09/24 06:23:58;;;;;;;;;;;;;;;13.69;100.00;101337.00;5051397;28;20330;-33
2022/09/24 06:26:27;;;;;;;;;;;;;;;13.70;100.00;101332.22;5049479;28;20438;-33
2022/09/24 06:28:56;;;;;;;;;;;;;;;13.73;100.00;101331.63;5051221;28;20374;-33
2022/09/24 06:31:31;;;;;;;;;;;;;;;13.74;100.00;101336.09;5051655;28;19925;-33
2022/09/24 06:33:59;;;;;;;;;;;;;;;13.74;100.00;101339.72;5040070;28;19928;-33
2022/09/24 06:36:27;;;;;;;;;;;;;;;13.76;100.00;101345.88;5050727;28;20003;-29
2022/09/24 06:38:54;;;;;;;;;;;;;;;13.78;100.00;101343.59;5051593;28;20381;-33
2022/09/24 06:41:22;;;;;;;;;;;;;;;13.81;100.00;101344.91;5050536;28;19928;-33
2022/09/24 06:43:53;;;;;;;;;;;;;;;13.83;100.00;101353.84;5047403;28;19928;-33
2022/09/24 06:46:24;;;;;;;;;;;;;;;13.85;100.00;101347.94;5050820;28;20363;-33
2022/09/24 06:48:53;;;;;;;;;;;;;;;13.86;100.00;101347.63;5051113;28;20449;-33
2022/09/24 06:51:21;;;;;;;;;;;;;;;13.88;100.00;101344.50;5051162;28;20353;-33
2022/09/24 06:53:50;;;;;;;;;;;;;;;13.88;100.00;101350.13;5050225;28;19925;-34
2022/09/24 06:56:18;;;;;;;;;;;;;;;13.92;100.00;101353.97;5051234;28;19928;-34
2022/09/24 06:58:46;;;;;;;;;;;;;;;13.97;100.00;101357.53;5050838;28;20365;-34
2022/09/24 07:01:14;;;;;;;;;;;;;;;14.02;100.00;101362.19;5050741;28;20019;-34
2022/09/24 07:03:43;;;;;;;;;;;;;;;14.05;100.00;101359.59;5050623;28;19925;-34
2022/09/24 07:06:11;;;;;;;;;;;;;;;14.09;100.00;101363.47;5050994;28;19931;-33
2022/09/24 07:08:38;;;;;;;;;;;;;;;14.13;100.00;101366.47;5050253;28;20356;-34
2022/09/24 07:11:06;;;;;;;;;;;;;;;14.17;100.00;101363.88;5050969;28;20031;-34
2022/09/24 07:13:34;;;;;;;;;;;;;;;14.20;100.00;101375.31;5050748;28;20008;-34
2022/09/24 07:16:02;;;;;;;;;;;;;;;14.24;100.00;101376.34;5050409;28;19928;-34
2022/09/24 07:18:30;;;;;;;;;;;;;;;14.29;100.00;101372.63;5050480;28;19932;-34
2022/09/24 07:20:59;;;;;;;;;;;;;;;14.31;100.00;101376.78;5051423;28;19924;-35
2022/09/24 07:23:27;;;;;;;;;;;;;;;14.37;100.00;101380.31;5053776;28;20385;-34
2022/09/24 07:25:55;;;;;;;;;;;;;;;14.43;100.00;101376.28;5054537;28;19924;-34
2022/09/24 07:28:23;;;;;;;;;;;;;;;14.50;100.00;101387.94;5054530;28;20371;-34
2022/09/24 07:30:56;;;;;;;;;;;;;;;14.51;100.00;101383.97;5043721;28;19925;-34
2022/09/24 07:33:24;;;;;;;;;;;;;;;14.53;100.00;101390.13;5054579;28;19959;-34
2022/09/24 07:35:52;;;;;;;;;;;;;;;14.55;100.00;101387.84;5054163;28;19963;-34
2022/09/24 07:38:21;;;;;;;;;;;;;;;14.58;100.00;101390.03;5054318;28;19924;-34
2022/09/24 07:40:49;;;;;;;;;;;;;;;14.59;100.00;101388.84;5054323;28;19929;-34
2022/09/24 07:43:16;;;;;;;;;;;;;;;14.61;100.00;101397.78;5053826;28;19925;-34
2022/09/24 07:45:45;;;;;;;;;;;;;;;14.62;100.00;101398.63;5053712;28;19935;-34
2022/09/24 07:48:14;;;;;;;;;;;;;;;14.62;100.00;101399.47;5054683;28;19929;-41
2022/09/24 07:50:42;;;;;;;;;;;;;;;14.65;100.00;101400.81;5053432;28;19929;-34
2022/09/24 07:53:10;;;;;;;;;;;;;;;14.71;100.00;101400.41;5054098;28;20023;-34
2022/09/24 07:55:40;;;;;;;;;;;;;;;14.80;100.00;101406.09;5054102;28;19925;-34
2022/09/24 07:58:08;;;;;;;;;;;;;;;14.92;100.00;101402.75;5053454;28;20341;-34
2022/09/24 08:00:36;;;;;;;;;;;;;;;15.08;100.00;101402.09;5053493;28;19931;-34
2022/09/24 08:03:04;;;;;;;;;;;;;;;15.37;100.00;101398.06;5053841;28;19952;-34
2022/09/24 08:05:32;;;;;;;;;;;;;;;15.81;100.00;101400.03;5053524;28;20227;-34
2022/09/24 08:08:00;;;;;;;;;;;;;;;16.31;100.00;101408.28;5053597;28;20440;-34
2022/09/24 08:10:28;;;;;;;;;;;;;;;16.71;100.00;101409.94;5053588;28;20411;-34
2022/09/24 08:13:01;;;;;;;;;;;;;;;16.99;100.00;101410.50;5053196;28;20007;-34
2022/09/24 08:15:28;;;;;;;;;;;;;;;17.06;100.00;101404.38;5053461;28;20343;-34
2022/09/24 08:18:00;;;;;;;;;;;;;;;17.04;100.00;101406.69;5053718;28;20325;-34
2022/09/24 08:20:28;;;;;;;;;;;;;;;17.05;100.00;101403.53;5053461;28;19936;-33
2022/09/24 08:23:00;;;;;;;;;;;;;;;17.10;100.00;101413.84;5053452;28;20364;-32
2022/09/24 08:25:28;;;;;;;;;;;;;;;17.37;100.00;101419.19;5053332;28;20022;-33
2022/09/24 08:28:00;;;;;;;;;;;;;;;17.91;100.00;101408.38;5053381;28;20357;-33
2022/09/24 08:30:28;;;;;;;;;;;;;;;18.57;100.00;101414.47;5053458;28;19929;-33
2022/09/24 08:32:56;;;;;;;;;;;;;;;19.04;100.00;101414.38;5032758;28;19925;-32
2022/09/24 08:35:24;;;;;;;;;;;;;;;19.18;100.00;101412.94;5052258;28;19935;-32
2022/09/24 08:37:53;;;;;;;;;;;;;;;19.28;100.00;101423.03;5051955;28;19994;-32
2022/09/24 08:40:23;;;;;;;;;;;;;;;19.65;100.00;101421.25;5050033;28;19967;-33
2022/09/24 08:42:55;;;;;;;;;;;;;;;20.23;100.00;101420.13;5052710;28;19990;-33
2022/09/24 08:48:13;;;;;;;;;;;;;;;21.21;95.04;101431.56;5051672;28;20055;-33
2022/09/24 08:50:46;;;;;;;;;;;;;;;21.33;86.43;101427.88;5052506;28;20451;-35
2022/09/24 08:53:17;;;;;;;;;;;;;;;21.22;84.50;101428.34;5051908;28;19939;-32
2022/09/24 08:55:46;;;;;;;;;;;;;;;20.95;80.22;101435.59;5051661;28;19960;-34
2022/09/24 08:58:22;;;;;;;;;;;;;;;20.75;78.06;101438.56;5051832;28;19928;-34
2022/09/24 09:00:54;;;;;;;;;;;;;;;20.69;80.83;101445.63;5052642;28;20011;-35
2022/09/24 09:03:27;;;;;;;;;;;;;;;20.60;78.48;101446.56;5052004;28;20035;-35
2022/09/24 09:05:59;;;;;;;;;;;;;;;20.48;80.46;101443.72;5052815;28;20456;-33
2022/09/24 09:08:31;;;;;;;;;;;;;;;20.36;79.77;101448.53;5051997;28;20421;-36
2022/09/24 09:11:21;;;;;;;;;;;;;;;20.20;79.96;101443.50;5052264;28;19972;-33
2022/09/24 09:13:53;;;;;;;;;;;;;;;20.04;80.53;101451.00;5052520;28;19932;-32
2022/09/24 09:16:24;;;;;;;;;;;;;;;19.91;82.46;101453.00;5052921;28;20364;-33
2022/09/24 09:18:54;;;;;;;;;;;;;;;19.94;85.68;101451.47;5051501;28;20047;-33
2022/09/24 09:21:26;;;;;;;;;;;;;;;20.11;82.84;101459.78;5051889;28;19925;-36
2022/09/24 09:23:56;;;;;;;;;;;;;;;20.43;80.06;101457.28;5051913;28;19935;-34
2022/09/24 09:26:26;;;;;;;;;;;;;;;20.84;78.58;101454.25;5052703;28;19925;-33
2022/09/24 09:28:56;;;;;;;;;;;;;;;21.02;73.03;101452.00;5051550;28;20385;-37
2022/09/24 09:31:31;;;;;;;;;;;;;;;21.08;71.63;101459.09;5052260;28;20023;-37
2022/09/24 09:34:05;;;;;;;;;;;;;;;21.15;73.59;101458.53;5052092;28;19928;-33
2022/09/24 09:36:43;;;;;;;;;;;;;;;21.19;76.89;101462.28;5051652;28;20042;-33
2022/09/24 09:39:21;;;;;;;;;;;;;;;21.25;77.86;101460.88;5051865;28;20345;-34
2022/09/24 09:41:53;;;;;;;;;;;;;;;21.27;73.63;101459.34;5052180;28;19978;-33
2022/09/24 09:44:24;;;;;;;;;;;;;;;21.39;72.89;101472.69;5051415;28;19975;-33
2022/09/24 09:46:56;;;;;;;;;;;;;;;21.56;67.88;101460.25;5051813;28;19968;-33
2022/09/24 09:49:28;;;;;;;;;;;;;;;21.43;65.74;101467.13;5051601;28;20397;-35
2022/09/24 09:51:56;;;;;;;;;;;;;;;21.37;68.95;101468.56;5052018;28;19925;-33
2022/09/24 09:54:35;;;;;;;;;;;;;;;21.56;72.69;101463.91;5051575;28;20020;-33
2022/09/24 09:57:03;;;;;;;;;;;;;;;21.91;71.10;101463.31;5031247;28;20399;-37
2022/09/24 09:59:33;;;;;;;;;;;;;;;22.28;69.29;101470.50;5046573;28;20035;-32
2022/09/24 10:02:02;;;;;;;;;;;;;;;22.63;67.36;101464.09;5051811;28;19936;-33
2022/09/24 10:04:38;;;;;;;;;;;;;;;22.78;66.02;101460.47;5051030;28;20647;-34
2022/09/24 10:07:09;;;;;;;;;;;;;;;22.82;60.85;101461.38;5051467;28;20007;-32
2022/09/24 10:09:37;;;;;;;;;;;;;;;22.77;60.56;101463.66;5051287;28;20336;-36
2022/09/24 10:12:23;;;;;;;;;;;;;;;22.82;62.54;101461.38;5051025;28;20023;-33
2022/09/24 10:14:56;;;;;;;;;;;;;;;22.96;59.48;101473.16;5051539;28;19971;-32
2022/09/24 10:17:30;;;;;;;;;;;;;;;23.11;60.81;101479.19;5050395;28;20135;-32
2022/09/24 10:20:00;;;;;;;;;;;;;;;23.38;63.00;101463.16;5051113;28;20304;-32
2022/09/24 10:22:28;;;;;;;;;;;;;;;23.55;58.34;101468.44;5051601;28;19979;-33
2022/09/24 10:24:58;;;;;;;;;;;;;;;23.62;58.22;101465.75;5050557;28;19931;-35
2022/09/24 10:27:29;;;;;;;;;;;;;;;23.76;59.49;101482.34;5051293;28;19931;-34
2022/09/24 10:32:44;;;;;;;;;;;;;;;24.06;53.38;101474.81;5050984;28;19998;-37
2022/09/24 10:35:23;;;;;;;;;;;;;;;24.01;55.86;101473.09;5051195;28;19932;-33
2022/09/24 10:37:52;;;;;;;;;;;;;;;24.08;54.42;101483.00;5051363;28;20016;-38
2022/09/24 10:40:22;;;;;;;;;;;;;;;24.11;54.74;101480.22;5050617;28;19928;-36
2022/09/24 10:42:58;;;;;;;;;;;;;;;24.18;56.16;101486.06;5050771;28;20293;-34
2022/09/24 10:45:52;;;;;;;;;;;;;;;24.16;52.94;101485.63;5050665;28;20019;-36
2022/09/24 10:48:26;;;;;;;;;;;;;;;24.03;50.63;101484.97;5026807;28;19928;-36
2022/09/24 10:50:57;;;;;;;;;;;;;;;23.90;52.26;101486.31;5051054;28;19925;-35
2022/09/24 10:53:33;;;;;;;;;;;;;;;23.95;54.53;101482.34;5050680;28;20367;-34
2022/09/24 10:56:05;;;;;;;;;;;;;;;24.09;51.07;101485.50;5052080;28;19968;-34
2022/09/24 10:58:41;;;;;;;;;;;;;;;23.96;50.51;101484.81;5055364;28;20024;-35
2022/09/24 11:01:14;;;;;;;;;;;;;;;23.82;52.25;101475.13;5054522;28;19931;-34
2022/09/24 11:03:53;;;;;;;;;;;;;;;23.82;53.68;101477.97;5054981;28;19943;-35
2022/09/24 11:06:26;;;;;;;;;;;;;;;23.80;52.88;101486.06;5055332;28;19932;-37
2022/09/24 11:09:02;;;;;;;;;;;;;;;23.76;51.26;101479.50;5055048;28;19936;-35
2022/09/24 11:11:36;;;;;;;;;;;;;;;23.66;51.77;101476.03;5054900;28;20016;-35
2022/09/24 11:14:12;;;;;;;;;;;;;;;23.59;53.22;101494.97;5054878;28;20350;-33
2022/09/24 11:17:09;;;;;;;;;;;;;;;23.40;52.20;101490.03;5070106;28;19932;-34
2022/09/24 11:19:54;;;;;;;;;;;;;;;23.26;51.89;101492.56;5012839;28;20431;-36
2022/09/24 11:22:29;;;;;;;;;;;;;;;23.20;52.72;101489.16;5048870;28;20051;-37
2022/09/24 11:25:17;;;;;;;;;;;;;;;23.13;56.61;101494.69;5035091;28;20024;-37
2022/09/24 11:27:51;;;;;;;;;;;;;;;23.05;53.82;101498.56;5051360;28;19924;-38
2022/09/24 11:30:20;;;;;;;;;;;;;;;22.72;54.79;101493.22;5054972;28;19978;-35
2022/09/24 11:33:00;;;;;;;;;;;;;;;22.48;55.45;101501.91;5054366;28;20372;-36
2022/09/24 11:35:46;;;;;;;;;;;;;;;22.20;54.79;101499.91;5034460;28;19933;-35
2022/09/24 11:38:18;;;;;;;;;;;;;;;21.92;56.54;101499.06;5052389;28;19925;-34
2022/09/24 11:40:59;;;;;;;;;;;;;;;21.77;57.83;101494.97;5054720;28;19935;-34
2022/09/24 11:43:38;;;;;;;;;;;;;;;21.64;59.24;101502.69;5054006;28;19929;-34
2022/09/24 11:46:11;;;;;;;;;;;;;;;21.58;60.99;101495.59;5054611;28;19924;-35
2022/09/24 11:48:49;;;;;;;;;;;;;;;21.61;61.56;101499.75;5053554;28;20344;-34
2022/09/24 11:51:21;;;;;;;;;;;;;;;21.62;61.19;101493.69;5054246;28;19931;-37
2022/09/24 11:53:54;;;;;;;;;;;;;;;21.51;59.09;101498.22;5053818;28;19978;-34
2022/09/24 11:56:24;;;;;;;;;;;;;;;21.29;60.16;101496.72;5054037;28;19925;-36
2022/09/24 11:58:59;;;;;;;;;;;;;;;21.12;61.14;101499.78;5053505;28;19929;-34
2022/09/24 12:01:28;;;;;;;;;;;;;;;20.91;60.57;101491.38;5054204;28;20028;-35
2022/09/24 12:03:58;;;;;;;;;;;;;;;20.81;62.87;101496.69;5053344;28;19935;-34
2022/09/24 12:06:30;;;;;;;;;;;;;;;20.81;63.33;101494.69;5053861;28;20444;-36
2022/09/24 12:09:02;;;;;;;;;;;;;;;20.81;62.43;101496.69;5052625;28;19925;-38
2022/09/24 12:11:32;;;;;;;;;;;;;;;20.66;63.93;101503.06;5033696;28;20024;-37
2022/09/24 12:14:03;;;;;;;;;;;;;;;20.56;64.92;101510.03;5048589;28;20028;-34
2022/09/24 12:16:33;;;;;;;;;;;;;;;20.42;64.83;101506.66;5053790;28;19929;-34
2022/09/24 12:19:03;;;;;;;;;;;;;;;20.21;65.59;101512.34;5053170;28;19939;-34
2022/09/24 12:21:33;;;;;;;;;;;;;;;19.95;66.28;101499.28;5053654;28;20019;-35
2022/09/24 12:24:05;;;;;;;;;;;;;;;19.74;66.62;101506.97;5052976;28;20019;-35
2022/09/24 12:26:36;;;;;;;;;;;;;;;19.60;68.67;101504.38;5053429;28;20015;-34
2022/09/24 12:34:52;;;;;;;;;;;;;;;19.50;66.97;101499.16;5053277;28;19929;-34
2022/09/24 12:37:22;;;;;;;;;;;;;;;19.51;68.19;101506.47;5053679;28;19925;-34
2022/09/24 12:39:56;;;;;;;;;;;;;;;19.49;67.46;101517.28;5052667;28;20385;-34
2022/09/24 12:42:28;;;;;;;;;;;;;;;19.43;69.28;101515.81;5053395;28;19931;-37
2022/09/24 12:44:59;;;;;;;;;;;;;;;19.46;70.05;101514.28;5052798;28;19952;-34
2022/09/24 12:47:28;;;;;;;;;;;;;;;19.45;69.08;101516.28;5052959;28;19929;-34
2022/09/24 12:49:58;;;;;;;;;;;;;;;19.52;68.63;101521.44;5052831;28;19929;-35
2022/09/24 12:52:27;;;;;;;;;;;;;;;19.51;67.68;101514.13;5052415;28;19928;-37
2022/09/24 12:54:59;;;;;;;;;;;;;;;19.49;68.20;101528.59;5052720;28;19948;-34
2022/09/24 12:57:31;;;;;;;;;;;;;;;19.45;68.65;101519.13;5053110;28;19935;-35
2022/09/24 13:00:00;;;;;;;;;;;;;;;19.39;68.13;101509.16;5052247;28;19982;-33
2022/09/24 13:02:30;;;;;;;;;;;;;;;19.36;66.58;101515.53;5052537;28;20381;-36
2022/09/24 13:05:15;;;;;;;;;;;;;;;19.31;67.92;101524.22;5052480;28;20027;-35
2022/09/24 13:07:43;;;;;;;;;;;;;;;19.22;67.92;101520.59;5052310;28;20389;-34